Time;durP1;ratioP1;P1;durP2;ratioP2;P2;SDS_P1;SDS_P2;PMS_P1;PMS_P2;Temp;Humidity;BMP_temperature;BMP_pressure;BME280_temperature;BME280_humidity;BME280_pressure;Samples;Min_cycle;Max_cycle;Signal;HPM_P1;HPM_P2
2021/11/14 00:01:42;;;;;;;18.70;14.02;;;;;;;;;;143739;581;45020;-57
2021/11/14 00:04:11;;;;;;;16.42;13.45;;;;;;;;;;143738;657;45020;-56
2021/11/14 00:06:39;;;;;;;16.65;13.65;;;;;;;;;;143737;606;46022;-58
2021/11/14 00:09:06;;;;;;;20.10;15.18;;;;;;;;;;143729;595;46020;-58
2021/11/14 00:11:33;;;;;;;20.08;15.27;;;;;;;;;;143738;642;45020;-57
2021/11/14 00:14:01;;;;;;;15.82;13.15;;;;;;;;;;143739;608;45021;-56
2021/11/14 00:16:28;;;;;;;18.48;14.00;;;;;;;;;;143735;639;46023;-56
2021/11/14 00:18:57;;;;;;;17.52;15.20;;;;;;;;;;143733;660;46020;-56
2021/11/14 00:21:27;;;;;;;19.48;15.90;;;;;;;;;;143738;586;45021;-57
2021/11/14 00:23:54;;;;;;;17.62;14.20;;;;;;;;;;143739;566;45020;-57
2021/11/14 00:26:22;;;;;;;17.23;14.60;;;;;;;;;;143734;565;46022;-57
2021/11/14 00:28:49;;;;;;;18.92;14.65;;;;;;;;;;143735;579;46021;-58
2021/11/14 00:31:18;;;;;;;28.98;20.50;;;;;;;;;;143739;640;45020;-56
2021/11/14 00:33:48;;;;;;;25.27;18.15;;;;;;;;;;143739;617;45020;-57
2021/11/14 00:36:17;;;;;;;20.85;17.15;;;;;;;;;;143734;632;46022;-57
2021/11/14 00:38:45;;;;;;;17.48;13.73;;;;;;;;;;143735;571;46020;-57
2021/11/14 00:41:12;;;;;;;28.60;18.65;;;;;;;;;;143738;622;45020;-56
2021/11/14 00:43:39;;;;;;;22.37;16.10;;;;;;;;;;143736;576;45021;-58
2021/11/14 00:46:10;;;;;;;19.60;14.15;;;;;;;;;;143732;590;46023;-56
2021/11/14 00:48:41;;;;;;;22.42;16.70;;;;;;;;;;143731;637;46020;-56
2021/11/14 00:51:14;;;;;;;24.15;16.12;;;;;;;;;;143736;616;45021;-56
2021/11/14 00:53:42;;;;;;;23.60;17.50;;;;;;;;;;143736;634;46020;-58
2021/11/14 00:56:09;;;;;;;18.37;14.07;;;;;;;;;;143734;569;46022;-57
2021/11/14 00:58:36;;;;;;;20.10;16.27;;;;;;;;;;143731;620;46021;-56
2021/11/14 01:01:04;;;;;;;28.27;18.37;;;;;;;;;;143736;565;45021;-58
2021/11/14 01:03:31;;;;;;;36.17;24.87;;;;;;;;;;143736;607;46012;-58
2021/11/14 01:05:58;;;;;;;28.60;17.08;;;;;;;;;;143733;565;46021;-58
2021/11/14 01:08:28;;;;;;;39.30;25.35;;;;;;;;;;143731;644;46020;-56
2021/11/14 01:10:56;;;;;;;30.02;19.12;;;;;;;;;;143736;640;45020;-56
2021/11/14 01:13:23;;;;;;;36.90;23.48;;;;;;;;;;143735;583;46013;-57
2021/11/14 01:15:53;;;;;;;26.17;16.92;;;;;;;;;;143735;567;46020;-56
2021/11/14 01:18:21;;;;;;;37.08;25.55;;;;;;;;;;143734;625;46020;-56
2021/11/14 01:20:54;;;;;;;35.38;25.92;;;;;;;;;;143735;566;45021;-56
2021/11/14 01:23:21;;;;;;;35.10;21.48;;;;;;;;;;143737;604;45020;-58
2021/11/14 01:25:49;;;;;;;32.30;21.83;;;;;;;;;;143732;582;46020;-58
2021/11/14 01:28:17;;;;;;;34.78;25.00;;;;;;;;;;143732;571;46021;-57
2021/11/14 01:30:49;;;;;;;42.65;29.35;;;;;;;;;;143734;569;45020;-57
2021/11/14 01:33:17;;;;;;;38.75;25.52;;;;;;;;;;143735;585;46020;-57
2021/11/14 01:35:46;;;;;;;42.13;29.15;;;;;;;;;;143733;567;46022;-56
2021/11/14 01:38:13;;;;;;;41.67;30.00;;;;;;;;;;143731;586;46020;-57
2021/11/14 01:40:59;;;;;;;37.10;25.73;;;;;;;;;;143734;573;45910;-56
2021/11/14 01:43:30;;;;;;;33.92;24.85;;;;;;;;;;143737;607;45021;-57
2021/11/14 01:45:58;;;;;;;30.62;20.85;;;;;;;;;;143735;638;46020;-58
2021/11/14 01:48:25;;;;;;;27.60;19.27;;;;;;;;;;143731;635;46020;-58
2021/11/14 01:50:53;;;;;;;27.17;20.52;;;;;;;;;;143736;590;45021;-57
2021/11/14 01:53:20;;;;;;;45.00;32.00;;;;;;;;;;143735;657;46020;-57
2021/11/14 01:55:51;;;;;;;46.00;32.88;;;;;;;;;;143733;568;46020;-56
2021/11/14 01:58:25;;;;;;;46.33;32.00;;;;;;;;;;143731;610;46021;-57
2021/11/14 02:01:10;;;;;;;44.83;30.65;;;;;;;;;;143736;571;45020;-57
2021/11/14 02:03:41;;;;;;;34.72;25.77;;;;;;;;;;143737;591;45020;-56
2021/11/14 02:06:09;;;;;;;39.67;27.87;;;;;;;;;;143733;580;46021;-56
2021/11/14 02:08:38;;;;;;;35.83;25.77;;;;;;;;;;143732;638;46020;-58
2021/11/14 02:11:07;;;;;;;49.80;29.87;;;;;;;;;;143734;625;45020;-56
2021/11/14 02:13:36;;;;;;;33.85;24.63;;;;;;;;;;143737;606;45021;-57
2021/11/14 02:16:03;;;;;;;32.58;24.83;;;;;;;;;;143730;583;47022;-56
2021/11/14 02:18:30;;;;;;;29.83;22.60;;;;;;;;;;143733;571;46020;-56
2021/11/14 02:20:57;;;;;;;26.35;19.90;;;;;;;;;;143734;642;46013;-56
2021/11/14 02:23:25;;;;;;;36.22;24.42;;;;;;;;;;143736;564;45020;-57
2021/11/14 02:25:54;;;;;;;34.63;22.85;;;;;;;;;;143732;612;46022;-57
2021/11/14 02:28:23;;;;;;;30.17;20.95;;;;;;;;;;143732;604;46021;-57
2021/11/14 02:30:52;;;;;;;30.12;22.25;;;;;;;;;;143737;570;45020;-57
2021/11/14 02:33:20;;;;;;;30.37;23.25;;;;;;;;;;143736;673;45020;-58
2021/11/14 02:35:51;;;;;;;43.20;29.20;;;;;;;;;;143731;679;47021;-56
2021/11/14 02:38:20;;;;;;;46.90;29.87;;;;;;;;;;143732;564;46020;-58
2021/11/14 02:40:48;;;;;;;38.60;27.65;;;;;;;;;;143731;571;46020;-56
2021/11/14 02:43:15;;;;;;;39.10;28.65;;;;;;;;;;143736;595;45021;-58
2021/11/14 02:45:43;;;;;;;51.90;31.98;;;;;;;;;;143732;585;46022;-56
2021/11/14 02:48:12;;;;;;;41.60;30.55;;;;;;;;;;143732;585;46020;-58
2021/11/14 02:50:40;;;;;;;47.88;29.87;;;;;;;;;;143736;661;45021;-58
2021/11/14 02:53:08;;;;;;;49.97;33.00;;;;;;;;;;143733;664;46012;-57
2021/11/14 02:55:37;;;;;;;42.88;31.05;;;;;;;;;;143732;569;46022;-58
2021/11/14 02:58:05;;;;;;;43.45;28.08;;;;;;;;;;143731;566;46021;-58
2021/11/14 03:01:02;;;;;;;36.72;26.62;;;;;;;;;;143735;586;45020;-57
2021/11/14 03:03:29;;;;;;;37.53;27.15;;;;;;;;;;143736;593;45020;-57
2021/11/14 03:05:57;;;;;;;40.03;24.42;;;;;;;;;;143731;632;47053;-57
2021/11/14 03:08:24;;;;;;;33.25;24.58;;;;;;;;;;143731;588;46020;-58
2021/11/14 03:10:51;;;;;;;33.08;22.50;;;;;;;;;;143736;582;45030;-57
2021/11/14 03:13:21;;;;;;;30.75;21.80;;;;;;;;;;143736;627;45021;-58
2021/11/14 03:15:55;;;;;;;40.78;25.33;;;;;;;;;;143733;651;46020;-57
2021/11/14 03:18:23;;;;;;;45.63;27.00;;;;;;;;;;143734;647;46020;-57
2021/11/14 03:20:52;;;;;;;48.33;31.00;;;;;;;;;;143737;587;45021;-58
2021/11/14 03:23:22;;;;;;;40.65;27.30;;;;;;;;;;143735;575;46012;-57
2021/11/14 03:25:50;;;;;;;30.77;22.27;;;;;;;;;;143734;570;46022;-57
2021/11/14 03:28:17;;;;;;;45.25;29.40;;;;;;;;;;143734;569;46020;-56
2021/11/14 03:30:45;;;;;;;39.88;28.85;;;;;;;;;;143735;612;45020;-58
2021/11/14 03:33:14;;;;;;;39.25;28.80;;;;;;;;;;143736;570;45020;-58
2021/11/14 03:35:59;;;;;;;40.45;29.73;;;;;;;;;;143733;614;46021;-56
2021/11/14 03:38:43;;;;;;;43.35;29.42;;;;;;;;;;143732;575;46020;-58
2021/11/14 03:41:14;;;;;;;52.45;34.33;;;;;;;;;;143735;584;45020;-58
2021/11/14 03:43:42;;;;;;;56.37;37.90;;;;;;;;;;143737;585;45021;-56
2021/11/14 03:46:09;;;;;;;56.78;38.55;;;;;;;;;;143732;569;46022;-56
2021/11/14 03:48:40;;;;;;;63.05;40.15;;;;;;;;;;143731;581;46020;-57
2021/11/14 03:51:08;;;;;;;45.20;33.45;;;;;;;;;;143734;616;46012;-58
2021/11/14 03:53:35;;;;;;;49.03;32.45;;;;;;;;;;143737;626;45020;-57
2021/11/14 03:56:03;;;;;;;50.60;33.67;;;;;;;;;;143733;617;46022;-56
2021/11/14 03:58:31;;;;;;;52.72;34.35;;;;;;;;;;143732;615;46021;-57
2021/11/14 04:01:00;;;;;;;40.08;24.98;;;;;;;;;;143734;588;45910;-58
2021/11/14 04:03:29;;;;;;;48.17;30.90;;;;;;;;;;143735;572;46012;-57
2021/11/14 04:05:56;;;;;;;38.85;26.12;;;;;;;;;;143733;585;46021;-56
2021/11/14 04:08:25;;;;;;;37.75;28.00;;;;;;;;;;143732;620;46020;-57
2021/11/14 04:10:55;;;;;;;40.00;26.20;;;;;;;;;;143734;631;45911;-57
2021/11/14 04:13:22;;;;;;;44.17;29.87;;;;;;;;;;143736;582;46021;-58
2021/11/14 04:15:50;;;;;;;45.70;31.23;;;;;;;;;;143735;565;46022;-57
2021/11/14 04:18:17;;;;;;;43.90;30.45;;;;;;;;;;143731;649;46020;-58
2021/11/14 04:20:46;;;;;;;50.28;34.00;;;;;;;;;;143736;607;45021;-56
2021/11/14 04:23:13;;;;;;;52.28;31.45;;;;;;;;;;143734;574;46012;-56
2021/11/14 04:25:41;;;;;;;43.63;29.75;;;;;;;;;;143732;566;46022;-57
2021/11/14 04:28:09;;;;;;;40.95;27.33;;;;;;;;;;143732;586;46021;-56
2021/11/14 04:30:36;;;;;;;68.20;42.33;;;;;;;;;;143731;613;46910;-57
2021/11/14 04:33:03;;;;;;;65.12;47.62;;;;;;;;;;143737;674;45020;-57
2021/11/14 04:35:30;;;;;;;72.37;48.47;;;;;;;;;;143732;601;46023;-57
2021/11/14 04:37:57;;;;;;;52.90;38.20;;;;;;;;;;143730;571;46020;-56
2021/11/14 04:40:26;;;;;;;54.63;39.72;;;;;;;;;;143733;615;45020;-56
2021/11/14 04:42:54;;;;;;;48.17;34.97;;;;;;;;;;143733;592;46012;-58
2021/11/14 04:45:21;;;;;;;49.55;35.20;;;;;;;;;;143732;588;46022;-58
2021/11/14 04:47:48;;;;;;;63.10;39.13;;;;;;;;;;143731;571;46020;-56
2021/11/14 04:50:19;;;;;;;47.67;34.75;;;;;;;;;;143734;629;46012;-57
2021/11/14 04:52:46;;;;;;;48.92;34.95;;;;;;;;;;143737;564;45020;-57
2021/11/14 04:55:14;;;;;;;54.35;40.15;;;;;;;;;;143732;575;46022;-58
2021/11/14 04:57:42;;;;;;;52.78;37.22;;;;;;;;;;143734;646;46021;-57
2021/11/14 05:00:12;;;;;;;52.17;33.58;;;;;;;;;;143735;566;45020;-57
2021/11/14 05:02:39;;;;;;;51.40;35.13;;;;;;;;;;143735;578;46020;-58
2021/11/14 05:05:07;;;;;;;42.72;32.42;;;;;;;;;;143732;612;46023;-58
2021/11/14 05:07:34;;;;;;;46.17;35.80;;;;;;;;;;143734;592;46020;-58
2021/11/14 05:10:02;;;;;;;47.70;33.72;;;;;;;;;;143733;585;46012;-58
2021/11/14 05:12:29;;;;;;;40.85;32.90;;;;;;;;;;143735;586;45021;-58
2021/11/14 05:14:56;;;;;;;54.33;33.45;;;;;;;;;;143732;577;46022;-58
2021/11/14 05:17:23;;;;;;;48.38;35.70;;;;;;;;;;143731;582;46020;-57
2021/11/14 05:19:50;;;;;;;45.75;35.40;;;;;;;;;;143727;580;48021;-58
2021/11/14 05:22:17;;;;;;;42.33;32.65;;;;;;;;;;143737;578;45020;-56
2021/11/14 05:24:44;;;;;;;39.85;28.85;;;;;;;;;;143732;597;46022;-56
2021/11/14 05:27:11;;;;;;;44.42;31.00;;;;;;;;;;143734;569;46021;-57
2021/11/14 05:29:38;;;;;;;54.17;36.22;;;;;;;;;;143734;627;45020;-56
2021/11/14 05:32:06;;;;;;;59.47;37.33;;;;;;;;;;143734;594;46020;-58
2021/11/14 05:34:33;;;;;;;64.47;40.20;;;;;;;;;;143733;593;46022;-56
2021/11/14 05:37:00;;;;;;;56.35;39.75;;;;;;;;;;143732;564;46020;-56
2021/11/14 05:39:27;;;;;;;74.00;46.60;;;;;;;;;;143735;569;45020;-56
2021/11/14 05:41:54;;;;;;;65.28;46.03;;;;;;;;;;143737;676;45021;-57
2021/11/14 05:44:21;;;;;;;48.05;34.88;;;;;;;;;;143732;582;46020;-56
2021/11/14 05:46:48;;;;;;;56.45;36.08;;;;;;;;;;143731;588;46021;-57
2021/11/14 05:49:16;;;;;;;49.42;37.38;;;;;;;;;;143736;570;45021;-57
2021/11/14 05:51:43;;;;;;;58.45;39.40;;;;;;;;;;143739;591;45046;-56
2021/11/14 05:54:10;;;;;;;51.95;37.72;;;;;;;;;;143733;569;46020;-57
2021/11/14 05:56:37;;;;;;;62.15;45.65;;;;;;;;;;143733;582;46021;-58
2021/11/14 05:59:31;;;;;;;46.45;35.53;;;;;;;;;;143737;634;45020;-57
2021/11/14 06:02:04;;;;;;;54.50;36.35;;;;;;;;;;143736;642;45020;-57
2021/11/14 06:07:29;;;;;;;49.95;36.83;;;;;;;;;;143734;582;46006;-57
2021/11/14 06:10:01;;;;;;;55.10;38.40;;;;;;;;;;143737;574;45021;-58
2021/11/14 06:12:28;;;;;;;58.05;40.58;;;;;;;;;;143734;570;45021;-57
2021/11/14 06:14:55;;;;;;;53.10;37.17;;;;;;;;;;143732;674;46022;-57
2021/11/14 06:17:22;;;;;;;57.97;43.05;;;;;;;;;;143732;620;46020;-57
2021/11/14 06:19:51;;;;;;;47.70;35.60;;;;;;;;;;143734;711;45028;-58
2021/11/14 06:22:18;;;;;;;45.97;34.60;;;;;;;;;;143736;585;45020;-57
2021/11/14 06:24:46;;;;;;;54.47;41.00;;;;;;;;;;143733;583;46020;-57
2021/11/14 06:27:13;;;;;;;53.50;36.17;;;;;;;;;;143731;588;46021;-58
2021/11/14 06:29:41;;;;;;;56.60;40.25;;;;;;;;;;143737;587;45020;-57
2021/11/14 06:32:08;;;;;;;55.72;35.00;;;;;;;;;;143736;597;45020;-58
2021/11/14 06:34:35;;;;;;;47.30;34.83;;;;;;;;;;143733;613;46021;-57
2021/11/14 06:37:03;;;;;;;47.62;33.83;;;;;;;;;;143732;572;46020;-57
2021/11/14 06:39:30;;;;;;;47.95;33.83;;;;;;;;;;143735;648;45020;-57
2021/11/14 06:41:57;;;;;;;52.97;39.70;;;;;;;;;;143733;569;46013;-58
2021/11/14 06:44:24;;;;;;;51.80;35.22;;;;;;;;;;143732;584;46022;-56
2021/11/14 06:46:52;;;;;;;56.35;38.58;;;;;;;;;;143734;576;46020;-58
2021/11/14 06:49:19;;;;;;;63.67;40.90;;;;;;;;;;143736;602;45021;-57
2021/11/14 06:51:46;;;;;;;59.25;36.03;;;;;;;;;;143736;611;45020;-58
2021/11/14 06:54:13;;;;;;;66.20;40.88;;;;;;;;;;143733;630;46022;-59
2021/11/14 06:56:40;;;;;;;67.82;46.10;;;;;;;;;;143731;654;46021;-59
2021/11/14 06:59:07;;;;;;;49.63;37.10;;;;;;;;;;143736;597;45020;-57
2021/11/14 07:01:34;;;;;;;50.78;38.17;;;;;;;;;;143737;603;45020;-57
2021/11/14 07:04:02;;;;;;;64.93;40.97;;;;;;;;;;143733;572;46023;-57
2021/11/14 07:06:29;;;;;;;48.72;37.58;;;;;;;;;;143733;581;46020;-58
2021/11/14 07:08:56;;;;;;;41.35;31.77;;;;;;;;;;143735;674;45912;-57
2021/11/14 07:11:23;;;;;;;50.28;36.17;;;;;;;;;;143734;629;46013;-58
2021/11/14 07:13:50;;;;;;;46.45;33.35;;;;;;;;;;143733;582;46022;-57
2021/11/14 07:16:17;;;;;;;52.35;35.75;;;;;;;;;;143731;657;46020;-59
2021/11/14 07:18:44;;;;;;;49.35;35.55;;;;;;;;;;143736;576;45913;-57
2021/11/14 07:21:11;;;;;;;49.10;34.88;;;;;;;;;;143737;571;46020;-57
2021/11/14 07:23:38;;;;;;;48.67;33.25;;;;;;;;;;143733;587;46022;-57
2021/11/14 07:26:05;;;;;;;47.85;34.30;;;;;;;;;;143736;580;45919;-57
2021/11/14 07:28:32;;;;;;;44.92;30.88;;;;;;;;;;143730;622;46020;-58
2021/11/14 07:30:59;;;;;;;43.97;31.75;;;;;;;;;;143736;595;45020;-58
2021/11/14 07:33:26;;;;;;;44.35;32.17;;;;;;;;;;143731;589;46022;-59
2021/11/14 07:35:53;;;;;;;41.75;32.30;;;;;;;;;;143731;672;46020;-58
2021/11/14 07:38:20;;;;;;;36.83;28.80;;;;;;;;;;143731;570;46012;-59
2021/11/14 07:40:47;;;;;;;40.15;31.42;;;;;;;;;;143736;600;46012;-58
2021/11/14 07:43:14;;;;;;;52.38;38.72;;;;;;;;;;143734;606;46020;-58
2021/11/14 07:45:41;;;;;;;60.70;42.78;;;;;;;;;;143732;590;46020;-58
2021/11/14 07:48:10;;;;;;;69.43;50.50;;;;;;;;;;143737;564;45021;-58
2021/11/14 07:50:38;;;;;;;69.47;44.83;;;;;;;;;;143738;696;45021;-58
2021/11/14 07:53:06;;;;;;;73.20;45.97;;;;;;;;;;143734;603;46020;-58
2021/11/14 07:55:34;;;;;;;64.32;43.40;;;;;;;;;;143732;657;46021;-57
2021/11/14 07:58:05;;;;;;;54.15;38.08;;;;;;;;;;143736;630;45031;-59
2021/11/14 08:00:34;;;;;;;53.33;36.42;;;;;;;;;;143737;626;46020;-58
2021/11/14 08:03:01;;;;;;;55.53;36.80;;;;;;;;;;143734;663;46021;-58
2021/11/14 08:05:29;;;;;;;45.67;32.10;;;;;;;;;;143732;589;46020;-57
2021/11/14 08:07:55;;;;;;;45.55;30.80;;;;;;;;;;143737;565;45020;-58
2021/11/14 08:10:23;;;;;;;39.67;28.52;;;;;;;;;;143737;580;46020;-59
2021/11/14 08:12:51;;;;;;;42.60;29.15;;;;;;;;;;143734;570;46020;-59
2021/11/14 08:15:18;;;;;;;35.90;29.10;;;;;;;;;;143732;569;46020;-58
2021/11/14 08:17:45;;;;;;;39.17;28.60;;;;;;;;;;143736;594;45021;-58
2021/11/14 08:20:12;;;;;;;47.13;30.55;;;;;;;;;;143737;594;45020;-58
2021/11/14 08:22:40;;;;;;;45.08;32.28;;;;;;;;;;143735;706;46022;-59
2021/11/14 08:25:08;;;;;;;42.30;31.70;;;;;;;;;;143733;606;46021;-58
2021/11/14 08:27:36;;;;;;;64.80;40.88;;;;;;;;;;143735;583;46012;-57
2021/11/14 08:30:05;;;;;;;84.37;57.80;;;;;;;;;;143737;564;45020;-57
2021/11/14 08:32:32;;;;;;;81.35;54.25;;;;;;;;;;143734;607;46022;-56
2021/11/14 08:34:59;;;;;;;64.70;46.20;;;;;;;;;;143735;576;46020;-59
2021/11/14 08:37:26;;;;;;;67.05;45.25;;;;;;;;;;143738;581;45020;-57
2021/11/14 08:39:53;;;;;;;52.70;38.88;;;;;;;;;;143737;580;46012;-56
2021/11/14 08:42:20;;;;;;;47.40;35.03;;;;;;;;;;143734;615;46023;-58
2021/11/14 08:44:48;;;;;;;48.50;34.53;;;;;;;;;;143736;743;46020;-56
2021/11/14 08:47:15;;;;;;;53.05;36.40;;;;;;;;;;143737;591;45021;-58
2021/11/14 08:49:43;;;;;;;73.45;52.33;;;;;;;;;;143739;571;45021;-58
2021/11/14 08:52:10;;;;;;;77.32;56.80;;;;;;;;;;143735;616;46020;-56
2021/11/14 08:54:38;;;;;;;66.85;47.45;;;;;;;;;;143736;578;46021;-57
2021/11/14 08:57:05;;;;;;;57.28;45.25;;;;;;;;;;143731;605;47012;-56
2021/11/14 08:59:33;;;;;;;46.25;36.38;;;;;;;;;;143738;580;45020;-56
2021/11/14 09:02:00;;;;;;;57.92;38.42;;;;;;;;;;143734;634;46022;-58
2021/11/14 09:04:27;;;;;;;49.65;37.50;;;;;;;;;;143736;752;46020;-58
2021/11/14 09:06:55;;;;;;;46.63;34.20;;;;;;;;;;143740;645;45020;-57
2021/11/14 09:09:23;;;;;;;48.97;33.63;;;;;;;;;;143739;589;45020;-57
2021/11/14 09:11:51;;;;;;;44.17;31.27;;;;;;;;;;143734;580;46023;-58
2021/11/14 09:14:19;;;;;;;39.47;30.40;;;;;;;;;;143734;564;46020;-57
2021/11/14 09:16:51;;;;;;;63.67;44.40;;;;;;;;;;143738;567;45021;-58
2021/11/14 09:19:19;;;;;;;55.05;41.50;;;;;;;;;;143738;575;45021;-56
2021/11/14 09:21:46;;;;;;;65.78;48.85;;;;;;;;;;143734;565;46022;-57
2021/11/14 09:24:14;;;;;;;50.53;36.08;;;;;;;;;;143734;626;46033;-57
2021/11/14 09:26:42;;;;;;;48.28;35.35;;;;;;;;;;143737;585;45021;-57
2021/11/14 09:29:12;;;;;;;50.75;35.53;;;;;;;;;;143738;569;46020;-57
2021/11/14 09:31:39;;;;;;;54.65;35.97;;;;;;;;;;143734;570;46022;-57
2021/11/14 09:34:06;;;;;;;50.55;38.78;;;;;;;;;;143733;646;46021;-57
2021/11/14 09:36:34;;;;;;;70.57;48.00;;;;;;;;;;143737;637;45020;-57
2021/11/14 09:39:08;;;;;;;56.53;40.05;;;;;;;;;;143738;594;45021;-56
2021/11/14 09:41:45;;;;;;;51.60;37.95;;;;;;;;;;143733;577;46023;-56
2021/11/14 09:44:16;;;;;;;43.78;34.70;;;;;;;;;;143735;603;46020;-56
2021/11/14 09:46:51;;;;;;;45.40;33.85;;;;;;;;;;143737;614;45021;-57
2021/11/14 09:49:21;;;;;;;42.85;31.95;;;;;;;;;;143738;564;45021;-57
2021/11/14 09:51:51;;;;;;;39.33;29.30;;;;;;;;;;143735;588;46020;-57
2021/11/14 09:54:20;;;;;;;39.80;29.42;;;;;;;;;;143734;584;46021;-57
2021/11/14 09:56:47;;;;;;;34.58;26.00;;;;;;;;;;143738;609;45021;-57
2021/11/14 09:59:15;;;;;;;43.80;29.83;;;;;;;;;;143737;600;46020;-57
2021/11/14 10:01:44;;;;;;;60.28;40.15;;;;;;;;;;143735;593;46022;-56
2021/11/14 10:04:12;;;;;;;49.63;35.10;;;;;;;;;;143736;627;46020;-57
2021/11/14 10:06:39;;;;;;;45.60;33.20;;;;;;;;;;143737;587;45020;-57
2021/11/14 10:09:07;;;;;;;49.05;34.58;;;;;;;;;;143738;624;46012;-57
2021/11/14 10:11:38;;;;;;;45.50;33.13;;;;;;;;;;143734;630;46023;-56
2021/11/14 10:14:06;;;;;;;42.88;31.48;;;;;;;;;;143733;623;46020;-57
2021/11/14 10:16:35;;;;;;;39.45;28.45;;;;;;;;;;143737;595;45026;-57
2021/11/14 10:19:12;;;;;;;39.65;28.55;;;;;;;;;;143739;564;45021;-58
2021/11/14 10:21:40;;;;;;;35.05;26.55;;;;;;;;;;143732;594;46022;-56
2021/11/14 10:24:10;;;;;;;33.50;24.75;;;;;;;;;;143734;587;46021;-57
2021/11/14 10:26:38;;;;;;;42.80;24.92;;;;;;;;;;143737;580;45020;-57
2021/11/14 10:29:09;;;;;;;40.55;26.40;;;;;;;;;;143734;571;46012;-56
2021/11/14 10:31:37;;;;;;;34.20;25.58;;;;;;;;;;143735;604;46021;-56
2021/11/14 10:34:04;;;;;;;31.02;22.20;;;;;;;;;;143732;578;46020;-56
2021/11/14 10:36:32;;;;;;;30.52;23.65;;;;;;;;;;143737;576;45020;-56
2021/11/14 10:39:09;;;;;;;36.33;24.75;;;;;;;;;;143736;621;46013;-56
2021/11/14 10:41:43;;;;;;;30.45;22.02;;;;;;;;;;143735;615;46020;-57
2021/11/14 10:44:16;;;;;;;32.15;23.30;;;;;;;;;;143733;618;46020;-55
2021/11/14 10:46:43;;;;;;;40.97;26.17;;;;;;;;;;143735;628;45023;-57
2021/11/14 10:49:11;;;;;;;39.35;27.10;;;;;;;;;;143736;566;46018;-54
2021/11/14 10:51:39;;;;;;;40.95;31.80;;;;;;;;;;143734;628;46022;-54
2021/11/14 10:54:07;;;;;;;39.45;31.25;;;;;;;;;;143734;572;46021;-57
2021/11/14 10:56:34;;;;;;;37.00;28.20;;;;;;;;;;143739;591;45021;-57
2021/11/14 10:59:04;;;;;;;41.22;26.95;;;;;;;;;;143739;589;45020;-55
2021/11/14 11:01:33;;;;;;;35.97;26.27;;;;;;;;;;143735;591;46021;-55
2021/11/14 11:04:00;;;;;;;37.17;25.02;;;;;;;;;;143734;595;46020;-55
2021/11/14 11:06:29;;;;;;;33.63;24.05;;;;;;;;;;143737;587;45020;-55
2021/11/14 11:09:05;;;;;;;30.42;23.02;;;;;;;;;;143737;625;46012;-57
2021/11/14 11:11:37;;;;;;;30.15;22.52;;;;;;;;;;143735;564;46023;-56
2021/11/14 11:14:04;;;;;;;28.45;21.73;;;;;;;;;;143731;573;47012;-58
2021/11/14 11:16:33;;;;;;;28.15;21.98;;;;;;;;;;143738;618;45021;-57
2021/11/14 11:19:08;;;;;;;40.47;23.00;;;;;;;;;;143739;613;45020;-58
2021/11/14 11:21:37;;;;;;;32.50;20.88;;;;;;;;;;143734;566;46022;-56
2021/11/14 11:24:25;;;;;;;28.08;21.65;;;;;;;;;;143735;638;46021;-55
2021/11/14 11:27:09;;;;;;;31.48;21.27;;;;;;;;;;143733;610;46012;-55
2021/11/14 11:29:39;;;;;;;33.47;23.17;;;;;;;;;;143738;624;45020;-55
2021/11/14 11:32:08;;;;;;;28.98;22.02;;;;;;;;;;143733;564;47020;-55
2021/11/14 11:34:36;;;;;;;28.35;20.05;;;;;;;;;;143734;618;46020;-57
2021/11/14 11:37:03;;;;;;;26.42;20.48;;;;;;;;;;143738;673;45020;-56
2021/11/14 11:39:32;;;;;;;33.47;21.92;;;;;;;;;;143738;639;45021;-57
2021/11/14 11:42:00;;;;;;;33.13;23.10;;;;;;;;;;143735;661;46023;-55
2021/11/14 11:44:28;;;;;;;26.52;20.92;;;;;;;;;;143734;714;46020;-57
2021/11/14 11:47:01;;;;;;;27.60;21.75;;;;;;;;;;143730;646;47014;-55
2021/11/14 11:49:31;;;;;;;26.52;20.42;;;;;;;;;;143739;566;45020;-56
2021/11/14 11:52:00;;;;;;;31.77;23.40;;;;;;;;;;143736;713;46020;-56
2021/11/14 11:54:35;;;;;;;47.28;34.03;;;;;;;;;;143734;569;46021;-55
2021/11/14 11:57:12;;;;;;;49.35;36.03;;;;;;;;;;143739;564;45020;-57
2021/11/14 11:59:43;;;;;;;44.17;33.60;;;;;;;;;;143738;637;45020;-55
2021/11/14 12:02:28;;;;;;;34.42;26.27;;;;;;;;;;143734;636;46023;-55
2021/11/14 12:04:55;;;;;;;;;;;;;;;;;;143740;981;46020;-55
2021/11/14 12:07:30;;;;;;;40.90;29.83;;;;;;;;;;143746;627;45021;-56
2021/11/14 12:10:00;;;;;;;37.53;27.05;;;;;;;;;;143739;625;45021;-55
2021/11/14 12:12:36;;;;;;;31.02;23.55;;;;;;;;;;143735;645;46020;-56
2021/11/14 12:15:16;;;;;;;33.45;25.15;;;;;;;;;;143736;564;46020;-56
2021/11/14 12:18:01;;;;;;;33.83;24.08;;;;;;;;;;143737;578;45021;-54
2021/11/14 12:20:33;;;;;;;31.08;22.73;;;;;;;;;;143738;577;46020;-57
2021/11/14 12:23:20;;;;;;;37.25;28.02;;;;;;;;;;143734;586;46022;-54
2021/11/14 12:25:49;;;;;;;32.95;26.30;;;;;;;;;;143734;717;46020;-57
2021/11/14 12:28:19;;;;;;;31.02;23.02;;;;;;;;;;143737;579;46014;-56
2021/11/14 12:31:19;;;;;;;30.95;21.85;;;;;;;;;;143738;566;45021;-54
2021/11/14 12:33:49;;;;;;;36.33;23.90;;;;;;;;;;143734;617;46024;-54
2021/11/14 12:36:40;;;;;;;36.08;25.25;;;;;;;;;;143734;616;46020;-55
2021/11/14 12:39:16;;;;;;;40.22;26.50;;;;;;;;;;143738;613;45021;-57
2021/11/14 12:42:17;;;;;;;29.33;20.15;;;;;;;;;;143739;569;45020;-54
2021/11/14 12:44:52;;;;;;;32.80;22.08;;;;;;;;;;143735;567;46021;-57
2021/11/14 12:47:29;;;;;;;28.70;21.42;;;;;;;;;;143733;599;46021;-57
2021/11/14 12:50:23;;;;;;;40.58;29.35;;;;;;;;;;143738;873;45020;-57
2021/11/14 12:53:03;;;;;;;32.83;23.95;;;;;;;;;;143734;638;47015;-57
2021/11/14 12:55:30;;;;;;;36.30;26.55;;;;;;;;;;143734;591;46029;-54
2021/11/14 12:58:03;;;;;;;26.27;21.35;;;;;;;;;;143733;635;46020;-57
2021/11/14 13:00:36;;;;;;;29.05;21.60;;;;;;;;;;143736;636;45021;-55
2021/11/14 13:03:06;;;;;;;30.92;22.35;;;;;;;;;;143739;738;45020;-56
2021/11/14 13:05:48;;;;;;;24.05;17.87;;;;;;;;;;143735;816;46020;-57
2021/11/14 13:08:23;;;;;;;36.47;21.52;;;;;;;;;;143736;610;46021;-56
2021/11/14 13:10:54;;;;;;;25.00;19.17;;;;;;;;;;143737;742;45030;-57
2021/11/14 13:13:41;;;;;;;29.63;21.42;;;;;;;;;;143737;803;45020;-57
2021/11/14 13:16:14;;;;;;;26.20;19.40;;;;;;;;;;143732;627;46022;-55
2021/11/14 13:18:41;;;;;;;27.50;19.65;;;;;;;;;;143732;567;46020;-56
2021/11/14 13:21:14;;;;;;;25.75;20.08;;;;;;;;;;143737;588;45020;-55
2021/11/14 13:23:59;;;;;;;23.33;17.58;;;;;;;;;;143737;632;45021;-57
2021/11/14 13:26:34;;;;;;;24.92;18.75;;;;;;;;;;143732;769;46022;-54
2021/11/14 13:29:02;;;;;;;;;;;;;;;;;;143737;981;46020;-57
2021/11/14 13:31:29;;;;;;;29.98;21.73;;;;;;;;;;143748;621;45021;-57
2021/11/14 13:34:07;;;;;;;28.15;19.40;;;;;;;;;;143736;581;45020;-56
2021/11/14 13:36:49;;;;;;;27.23;20.77;;;;;;;;;;143732;619;46022;-54
2021/11/14 13:39:46;;;;;;;24.30;18.45;;;;;;;;;;143732;587;46021;-56
2021/11/14 13:42:19;;;;;;;25.00;19.37;;;;;;;;;;143734;593;46012;-56
2021/11/14 13:44:52;;;;;;;24.23;20.00;;;;;;;;;;143735;601;45021;-54
2021/11/14 13:47:39;;;;;;;26.77;21.37;;;;;;;;;;143734;570;46023;-56
2021/11/14 13:50:09;;;;;;;22.90;17.60;;;;;;;;;;143733;603;46020;-54
2021/11/14 13:52:37;;;;;;;26.27;20.08;;;;;;;;;;143735;570;45021;-55
2021/11/14 13:55:07;;;;;;;28.73;21.33;;;;;;;;;;143736;636;46020;-57
2021/11/14 13:57:36;;;;;;;23.45;18.00;;;;;;;;;;143734;615;46022;-57
2021/11/14 14:00:11;;;;;;;25.37;18.42;;;;;;;;;;143731;573;46021;-57
2021/11/14 14:02:38;;;;;;;27.92;21.10;;;;;;;;;;143737;583;45020;-58
2021/11/14 14:05:09;;;;;;;25.25;19.40;;;;;;;;;;143736;570;46012;-57
2021/11/14 14:07:39;;;;;;;25.37;17.17;;;;;;;;;;143733;581;46021;-56
2021/11/14 14:10:15;;;;;;;27.05;20.83;;;;;;;;;;143731;643;46020;-56
2021/11/14 14:12:54;;;;;;;28.77;21.60;;;;;;;;;;143736;606;45020;-56
2021/11/14 14:15:38;;;;;;;30.25;22.55;;;;;;;;;;143737;569;45021;-57
2021/11/14 14:18:14;;;;;;;25.62;19.90;;;;;;;;;;143730;599;47022;-58
2021/11/14 14:20:41;;;;;;;31.45;26.00;;;;;;;;;;143731;618;46020;-57
2021/11/14 14:23:08;;;;;;;25.48;19.45;;;;;;;;;;143735;634;45021;-54
2021/11/14 14:25:38;;;;;;;32.85;25.35;;;;;;;;;;143735;592;46012;-56
2021/11/14 14:28:13;;;;;;;35.88;25.12;;;;;;;;;;143735;588;46020;-55
2021/11/14 14:30:41;;;;;;;30.33;23.23;;;;;;;;;;143734;628;46021;-57
2021/11/14 14:33:18;;;;;;;30.17;23.20;;;;;;;;;;143737;606;45020;-56
2021/11/14 14:35:49;;;;;;;29.23;18.45;;;;;;;;;;143737;586;45020;-54
2021/11/14 14:38:18;;;;;;;37.45;25.17;;;;;;;;;;143733;587;46022;-56